sensor_id;sensor_type;location;lat;lon;timestamp;P1;durP1;ratioP1;P2;durP2;ratioP2
35496;SDS011;21609;49.298;6.844;2023-03-24T00:02:02;1.25;;;1.15;;
35496;SDS011;21609;49.298;6.844;2023-03-24T00:04:28;1.45;;;1.35;;
35496;SDS011;21609;49.298;6.844;2023-03-24T00:06:54;1.42;;;1.17;;
35496;SDS011;21609;49.298;6.844;2023-03-24T00:09:19;1.48;;;1.38;;
35496;SDS011;21609;49.298;6.844;2023-03-24T00:11:45;1.80;;;1.60;;
35496;SDS011;21609;49.298;6.844;2023-03-24T00:14:11;2.10;;;1.38;;
35496;SDS011;21609;49.298;6.844;2023-03-24T00:16:37;1.77;;;1.67;;
35496;SDS011;21609;49.298;6.844;2023-03-24T00:19:06;1.60;;;1.50;;
35496;SDS011;21609;49.298;6.844;2023-03-24T00:21:37;1.60;;;1.50;;
35496;SDS011;21609;49.298;6.844;2023-03-24T00:24:04;1.52;;;1.42;;
35496;SDS011;21609;49.298;6.844;2023-03-24T00:26:32;1.98;;;1.75;;
35496;SDS011;21609;49.298;6.844;2023-03-24T00:28:58;1.98;;;1.58;;
35496;SDS011;21609;49.298;6.844;2023-03-24T00:31:26;2.83;;;1.50;;
35496;SDS011;21609;49.298;6.844;2023-03-24T00:33:51;1.67;;;1.58;;
35496;SDS011;21609;49.298;6.844;2023-03-24T00:36:18;1.77;;;1.63;;
35496;SDS011;21609;49.298;6.844;2023-03-24T00:38:47;2.75;;;1.98;;
35496;SDS011;21609;49.298;6.844;2023-03-24T00:41:13;1.63;;;1.50;;
35496;SDS011;21609;49.298;6.844;2023-03-24T00:43:43;2.03;;;1.92;;
35496;SDS011;21609;49.298;6.844;2023-03-24T00:46:11;2.28;;;1.48;;
35496;SDS011;21609;49.298;6.844;2023-03-24T00:48:55;2.15;;;1.95;;
35496;SDS011;21609;49.298;6.844;2023-03-24T00:51:26;1.83;;;1.60;;
35496;SDS011;21609;49.298;6.844;2023-03-24T00:53:53;4.03;;;1.52;;
35496;SDS011;21609;49.298;6.844;2023-03-24T00:56:22;1.77;;;1.67;;
35496;SDS011;21609;49.298;6.844;2023-03-24T00:58:50;1.60;;;1.50;;
35496;SDS011;21609;49.298;6.844;2023-03-24T01:01:16;1.83;;;1.67;;
35496;SDS011;21609;49.298;6.844;2023-03-24T01:03:42;1.55;;;1.45;;
35496;SDS011;21609;49.298;6.844;2023-03-24T01:06:12;2.33;;;1.38;;
35496;SDS011;21609;49.298;6.844;2023-03-24T01:08:38;1.90;;;1.80;;
35496;SDS011;21609;49.298;6.844;2023-03-24T01:11:04;1.75;;;1.65;;
35496;SDS011;21609;49.298;6.844;2023-03-24T01:13:30;1.80;;;1.70;;
35496;SDS011;21609;49.298;6.844;2023-03-24T01:15:58;1.95;;;1.75;;
35496;SDS011;21609;49.298;6.844;2023-03-24T01:18:23;1.77;;;1.67;;
35496;SDS011;21609;49.298;6.844;2023-03-24T01:20:49;1.88;;;1.58;;
35496;SDS011;21609;49.298;6.844;2023-03-24T01:23:18;1.77;;;1.63;;
35496;SDS011;21609;49.298;6.844;2023-03-24T01:25:46;2.33;;;1.85;;
35496;SDS011;21609;49.298;6.844;2023-03-24T01:28:14;1.98;;;1.88;;
35496;SDS011;21609;49.298;6.844;2023-03-24T01:30:42;1.60;;;1.45;;
35496;SDS011;21609;49.298;6.844;2023-03-24T01:33:08;1.70;;;1.60;;
35496;SDS011;21609;49.298;6.844;2023-03-24T01:35:34;1.75;;;1.50;;
35496;SDS011;21609;49.298;6.844;2023-03-24T01:38:03;1.77;;;1.60;;
35496;SDS011;21609;49.298;6.844;2023-03-24T01:40:31;1.85;;;1.75;;
35496;SDS011;21609;49.298;6.844;2023-03-24T01:42:59;3.35;;;1.60;;
35496;SDS011;21609;49.298;6.844;2023-03-24T01:48:16;2.25;;;2.10;;
35496;SDS011;21609;49.298;6.844;2023-03-24T01:51:05;2.10;;;2.00;;
35496;SDS011;21609;49.298;6.844;2023-03-24T01:53:39;2.20;;;2.00;;
35496;SDS011;21609;49.298;6.844;2023-03-24T01:56:13;1.75;;;1.65;;
35496;SDS011;21609;49.298;6.844;2023-03-24T01:58:40;1.88;;;1.77;;
35496;SDS011;21609;49.298;6.844;2023-03-24T02:01:11;1.92;;;1.83;;
35496;SDS011;21609;49.298;6.844;2023-03-24T02:03:37;1.88;;;1.77;;
35496;SDS011;21609;49.298;6.844;2023-03-24T02:06:04;1.85;;;1.75;;
35496;SDS011;21609;49.298;6.844;2023-03-24T02:08:37;2.30;;;1.55;;
35496;SDS011;21609;49.298;6.844;2023-03-24T02:11:08;1.90;;;1.70;;
35496;SDS011;21609;49.298;6.844;2023-03-24T02:13:34;1.83;;;1.73;;
35496;SDS011;21609;49.298;6.844;2023-03-24T02:16:03;2.55;;;2.35;;
35496;SDS011;21609;49.298;6.844;2023-03-24T02:26:46;4.97;;;1.98;;
35496;SDS011;21609;49.298;6.844;2023-03-24T02:32:51;2.92;;;2.70;;
35496;SDS011;21609;49.298;6.844;2023-03-24T02:38:34;2.33;;;2.08;;
35496;SDS011;21609;49.298;6.844;2023-03-24T02:41:29;1.70;;;1.60;;
35496;SDS011;21609;49.298;6.844;2023-03-24T02:44:39;2.03;;;1.83;;
35496;SDS011;21609;49.298;6.844;2023-03-24T02:47:09;2.00;;;1.90;;
35496;SDS011;21609;49.298;6.844;2023-03-24T02:55:14;1.70;;;1.60;;
35496;SDS011;21609;49.298;6.844;2023-03-24T03:00:28;2.05;;;1.95;;
35496;SDS011;21609;49.298;6.844;2023-03-24T03:03:00;2.00;;;1.60;;
35496;SDS011;21609;49.298;6.844;2023-03-24T03:05:35;2.08;;;1.98;;
35496;SDS011;21609;49.298;6.844;2023-03-24T03:08:19;2.03;;;1.92;;
35496;SDS011;21609;49.298;6.844;2023-03-24T03:10:47;1.83;;;1.73;;
35496;SDS011;21609;49.298;6.844;2023-03-24T03:15:54;2.10;;;1.88;;
35496;SDS011;21609;49.298;6.844;2023-03-24T03:18:30;2.08;;;1.92;;
35496;SDS011;21609;49.298;6.844;2023-03-24T03:21:16;1.60;;;1.50;;
35496;SDS011;21609;49.298;6.844;2023-03-24T03:23:50;2.10;;;1.90;;
35496;SDS011;21609;49.298;6.844;2023-03-24T03:26:26;1.60;;;1.50;;
35496;SDS011;21609;49.298;6.844;2023-03-24T03:31:31;1.40;;;1.30;;
35496;SDS011;21609;49.298;6.844;2023-03-24T03:34:19;1.65;;;1.55;;
35496;SDS011;21609;49.298;6.844;2023-03-24T03:37:09;1.88;;;1.77;;
35496;SDS011;21609;49.298;6.844;2023-03-24T03:40:13;2.40;;;2.20;;
35496;SDS011;21609;49.298;6.844;2023-03-24T03:42:49;2.17;;;1.98;;
35496;SDS011;21609;49.298;6.844;2023-03-24T03:45:15;1.75;;;1.65;;
35496;SDS011;21609;49.298;6.844;2023-03-24T03:47:41;1.98;;;1.80;;
35496;SDS011;21609;49.298;6.844;2023-03-24T03:50:07;2.08;;;1.88;;
35496;SDS011;21609;49.298;6.844;2023-03-24T03:52:35;1.77;;;1.60;;
35496;SDS011;21609;49.298;6.844;2023-03-24T03:55:02;1.85;;;1.70;;
35496;SDS011;21609;49.298;6.844;2023-03-24T03:57:29;1.80;;;1.65;;
35496;SDS011;21609;49.298;6.844;2023-03-24T03:59:56;1.77;;;1.67;;
35496;SDS011;21609;49.298;6.844;2023-03-24T04:02:40;1.60;;;1.50;;
35496;SDS011;21609;49.298;6.844;2023-03-24T04:05:29;1.60;;;1.50;;
35496;SDS011;21609;49.298;6.844;2023-03-24T04:08:14;1.63;;;1.52;;
35496;SDS011;21609;49.298;6.844;2023-03-24T04:13:38;1.77;;;1.67;;
35496;SDS011;21609;49.298;6.844;2023-03-24T04:25:10;1.77;;;1.67;;
35496;SDS011;21609;49.298;6.844;2023-03-24T04:27:49;1.50;;;1.40;;
35496;SDS011;21609;49.298;6.844;2023-03-24T04:30:40;1.70;;;1.60;;
35496;SDS011;21609;49.298;6.844;2023-03-24T04:33:13;1.77;;;1.67;;
35496;SDS011;21609;49.298;6.844;2023-03-24T04:35:46;2.33;;;2.13;;
35496;SDS011;21609;49.298;6.844;2023-03-24T04:38:18;1.73;;;1.55;;
35496;SDS011;21609;49.298;6.844;2023-03-24T04:40:47;1.95;;;1.73;;
35496;SDS011;21609;49.298;6.844;2023-03-24T04:43:16;1.88;;;1.75;;
35496;SDS011;21609;49.298;6.844;2023-03-24T04:45:44;1.98;;;1.80;;
35496;SDS011;21609;49.298;6.844;2023-03-24T04:48:13;1.60;;;1.50;;
35496;SDS011;21609;49.298;6.844;2023-03-24T04:50:42;3.13;;;1.67;;
35496;SDS011;21609;49.298;6.844;2023-03-24T04:58:21;1.50;;;1.40;;
35496;SDS011;21609;49.298;6.844;2023-03-24T05:00:48;2.33;;;1.70;;
35496;SDS011;21609;49.298;6.844;2023-03-24T05:03:15;2.35;;;1.80;;
35496;SDS011;21609;49.298;6.844;2023-03-24T05:05:45;1.50;;;1.40;;
35496;SDS011;21609;49.298;6.844;2023-03-24T05:08:12;1.65;;;1.55;;
35496;SDS011;21609;49.298;6.844;2023-03-24T05:10:39;1.50;;;1.20;;
35496;SDS011;21609;49.298;6.844;2023-03-24T05:13:05;2.13;;;1.70;;
35496;SDS011;21609;49.298;6.844;2023-03-24T05:15:31;1.85;;;1.75;;
35496;SDS011;21609;49.298;6.844;2023-03-24T05:17:57;1.60;;;1.42;;
35496;SDS011;21609;49.298;6.844;2023-03-24T05:20:23;1.60;;;1.50;;
35496;SDS011;21609;49.298;6.844;2023-03-24T05:22:49;1.55;;;1.45;;
35496;SDS011;21609;49.298;6.844;2023-03-24T05:25:16;5.00;;;1.60;;
35496;SDS011;21609;49.298;6.844;2023-03-24T05:27:42;2.08;;;1.55;;
35496;SDS011;21609;49.298;6.844;2023-03-24T05:30:08;1.50;;;1.40;;
35496;SDS011;21609;49.298;6.844;2023-03-24T05:32:34;1.55;;;1.45;;
35496;SDS011;21609;49.298;6.844;2023-03-24T05:35:00;1.60;;;1.50;;
35496;SDS011;21609;49.298;6.844;2023-03-24T05:37:25;1.73;;;1.63;;
35496;SDS011;21609;49.298;6.844;2023-03-24T05:39:51;1.88;;;1.10;;
35496;SDS011;21609;49.298;6.844;2023-03-24T05:42:17;2.25;;;1.50;;
35496;SDS011;21609;49.298;6.844;2023-03-24T05:44:43;1.60;;;1.50;;
35496;SDS011;21609;49.298;6.844;2023-03-24T05:47:09;1.65;;;1.55;;
35496;SDS011;21609;49.298;6.844;2023-03-24T05:49:36;1.52;;;1.42;;
35496;SDS011;21609;49.298;6.844;2023-03-24T05:52:02;1.20;;;1.10;;
35496;SDS011;21609;49.298;6.844;2023-03-24T05:54:28;1.55;;;1.45;;
35496;SDS011;21609;49.298;6.844;2023-03-24T05:56:53;1.45;;;1.35;;
35496;SDS011;21609;49.298;6.844;2023-03-24T05:59:19;1.55;;;1.45;;
35496;SDS011;21609;49.298;6.844;2023-03-24T06:01:45;1.45;;;1.35;;
35496;SDS011;21609;49.298;6.844;2023-03-24T06:04:12;1.40;;;1.30;;
35496;SDS011;21609;49.298;6.844;2023-03-24T06:06:37;1.48;;;1.20;;
35496;SDS011;21609;49.298;6.844;2023-03-24T06:09:04;1.77;;;1.63;;
35496;SDS011;21609;49.298;6.844;2023-03-24T06:11:30;1.35;;;1.25;;
35496;SDS011;21609;49.298;6.844;2023-03-24T06:13:56;1.60;;;1.50;;
35496;SDS011;21609;49.298;6.844;2023-03-24T06:16:25;1.85;;;1.60;;
35496;SDS011;21609;49.298;6.844;2023-03-24T06:18:51;1.58;;;1.48;;
35496;SDS011;21609;49.298;6.844;2023-03-24T06:21:17;1.52;;;1.42;;
35496;SDS011;21609;49.298;6.844;2023-03-24T06:23:43;1.60;;;1.50;;
35496;SDS011;21609;49.298;6.844;2023-03-24T06:26:09;2.75;;;1.50;;
35496;SDS011;21609;49.298;6.844;2023-03-24T06:28:36;1.58;;;1.38;;
35496;SDS011;21609;49.298;6.844;2023-03-24T06:31:07;1.42;;;1.33;;
35496;SDS011;21609;49.298;6.844;2023-03-24T06:33:42;1.45;;;1.35;;
35496;SDS011;21609;49.298;6.844;2023-03-24T06:36:08;1.50;;;1.40;;
35496;SDS011;21609;49.298;6.844;2023-03-24T06:38:35;1.58;;;1.42;;
35496;SDS011;21609;49.298;6.844;2023-03-24T06:41:01;3.72;;;1.25;;
35496;SDS011;21609;49.298;6.844;2023-03-24T06:43:27;1.63;;;1.52;;
35496;SDS011;21609;49.298;6.844;2023-03-24T06:45:54;1.58;;;1.35;;
35496;SDS011;21609;49.298;6.844;2023-03-24T06:48:20;1.60;;;1.50;;
35496;SDS011;21609;49.298;6.844;2023-03-24T06:50:45;1.40;;;1.30;;
35496;SDS011;21609;49.298;6.844;2023-03-24T06:53:11;1.80;;;1.70;;
35496;SDS011;21609;49.298;6.844;2023-03-24T06:55:36;1.23;;;1.13;;
35496;SDS011;21609;49.298;6.844;2023-03-24T06:58:02;1.63;;;1.52;;
35496;SDS011;21609;49.298;6.844;2023-03-24T07:00:28;2.50;;;1.10;;
35496;SDS011;21609;49.298;6.844;2023-03-24T07:02:54;2.10;;;1.63;;
35496;SDS011;21609;49.298;6.844;2023-03-24T07:05:20;1.48;;;1.38;;
35496;SDS011;21609;49.298;6.844;2023-03-24T07:07:46;1.85;;;1.48;;
35496;SDS011;21609;49.298;6.844;2023-03-24T07:10:12;2.05;;;1.67;;
35496;SDS011;21609;49.298;6.844;2023-03-24T07:12:38;1.70;;;1.60;;
35496;SDS011;21609;49.298;6.844;2023-03-24T07:15:04;1.70;;;1.60;;
35496;SDS011;21609;49.298;6.844;2023-03-24T07:17:32;1.80;;;1.52;;
35496;SDS011;21609;49.298;6.844;2023-03-24T07:19:57;2.65;;;1.70;;
35496;SDS011;21609;49.298;6.844;2023-03-24T07:22:23;4.93;;;1.45;;
35496;SDS011;21609;49.298;6.844;2023-03-24T07:24:49;1.73;;;1.50;;
35496;SDS011;21609;49.298;6.844;2023-03-24T07:27:16;1.70;;;1.60;;
35496;SDS011;21609;49.298;6.844;2023-03-24T07:29:41;1.42;;;1.35;;
35496;SDS011;21609;49.298;6.844;2023-03-24T07:32:07;2.60;;;1.67;;
35496;SDS011;21609;49.298;6.844;2023-03-24T07:34:33;2.10;;;1.90;;
35496;SDS011;21609;49.298;6.844;2023-03-24T07:37:00;1.58;;;1.42;;
35496;SDS011;21609;49.298;6.844;2023-03-24T07:39:26;2.40;;;2.20;;
35496;SDS011;21609;49.298;6.844;2023-03-24T07:41:52;1.90;;;1.80;;
35496;SDS011;21609;49.298;6.844;2023-03-24T07:44:17;2.15;;;1.52;;
35496;SDS011;21609;49.298;6.844;2023-03-24T07:46:43;1.85;;;1.65;;
35496;SDS011;21609;49.298;6.844;2023-03-24T07:49:08;1.50;;;1.40;;
35496;SDS011;21609;49.298;6.844;2023-03-24T07:51:34;1.95;;;1.80;;
35496;SDS011;21609;49.298;6.844;2023-03-24T07:54:00;2.90;;;2.05;;
35496;SDS011;21609;49.298;6.844;2023-03-24T07:56:25;1.75;;;1.65;;
35496;SDS011;21609;49.298;6.844;2023-03-24T07:58:51;3.17;;;1.80;;
35496;SDS011;21609;49.298;6.844;2023-03-24T08:01:16;1.95;;;1.85;;
35496;SDS011;21609;49.298;6.844;2023-03-24T08:03:42;1.58;;;1.48;;
35496;SDS011;21609;49.298;6.844;2023-03-24T08:06:08;2.03;;;1.85;;
35496;SDS011;21609;49.298;6.844;2023-03-24T08:08:34;1.80;;;1.70;;
35496;SDS011;21609;49.298;6.844;2023-03-24T08:11:00;3.20;;;2.00;;
35496;SDS011;21609;49.298;6.844;2023-03-24T08:13:26;1.90;;;1.80;;
35496;SDS011;21609;49.298;6.844;2023-03-24T08:15:51;1.83;;;1.73;;
35496;SDS011;21609;49.298;6.844;2023-03-24T08:18:18;1.60;;;1.50;;
35496;SDS011;21609;49.298;6.844;2023-03-24T08:20:48;3.22;;;2.60;;
35496;SDS011;21609;49.298;6.844;2023-03-24T08:23:17;1.73;;;1.63;;
35496;SDS011;21609;49.298;6.844;2023-03-24T08:25:44;1.80;;;1.70;;
35496;SDS011;21609;49.298;6.844;2023-03-24T08:28:11;1.90;;;1.75;;
35496;SDS011;21609;49.298;6.844;2023-03-24T08:30:37;1.77;;;1.67;;
35496;SDS011;21609;49.298;6.844;2023-03-24T08:33:03;4.50;;;2.50;;
35496;SDS011;21609;49.298;6.844;2023-03-24T08:35:30;1.65;;;1.48;;
35496;SDS011;21609;49.298;6.844;2023-03-24T08:37:58;2.00;;;1.70;;
35496;SDS011;21609;49.298;6.844;2023-03-24T08:40:25;2.08;;;1.98;;
35496;SDS011;21609;49.298;6.844;2023-03-24T08:42:53;1.92;;;1.80;;
35496;SDS011;21609;49.298;6.844;2023-03-24T08:45:21;2.30;;;1.88;;
35496;SDS011;21609;49.298;6.844;2023-03-24T08:47:51;1.88;;;1.77;;
35496;SDS011;21609;49.298;6.844;2023-03-24T08:50:21;2.03;;;1.63;;
35496;SDS011;21609;49.298;6.844;2023-03-24T08:52:51;3.10;;;2.60;;
35496;SDS011;21609;49.298;6.844;2023-03-24T08:55:17;3.05;;;1.60;;
35496;SDS011;21609;49.298;6.844;2023-03-24T08:57:43;2.30;;;1.98;;
35496;SDS011;21609;49.298;6.844;2023-03-24T09:00:09;4.05;;;2.30;;
35496;SDS011;21609;49.298;6.844;2023-03-24T09:02:39;2.20;;;1.83;;
35496;SDS011;21609;49.298;6.844;2023-03-24T09:05:06;3.15;;;1.20;;
35496;SDS011;21609;49.298;6.844;2023-03-24T09:07:32;3.78;;;1.45;;
35496;SDS011;21609;49.298;6.844;2023-03-24T09:09:58;1.33;;;1.23;;
35496;SDS011;21609;49.298;6.844;2023-03-24T09:12:24;1.48;;;1.38;;
35496;SDS011;21609;49.298;6.844;2023-03-24T09:14:49;1.77;;;1.48;;
35496;SDS011;21609;49.298;6.844;2023-03-24T09:17:15;1.50;;;1.40;;
35496;SDS011;21609;49.298;6.844;2023-03-24T09:19:42;1.70;;;1.35;;
35496;SDS011;21609;49.298;6.844;2023-03-24T09:22:08;2.90;;;1.60;;
35496;SDS011;21609;49.298;6.844;2023-03-24T09:24:34;1.58;;;1.48;;
35496;SDS011;21609;49.298;6.844;2023-03-24T09:27:00;2.45;;;1.42;;
35496;SDS011;21609;49.298;6.844;2023-03-24T09:29:26;1.67;;;1.23;;
35496;SDS011;21609;49.298;6.844;2023-03-24T09:31:51;1.40;;;1.30;;
35496;SDS011;21609;49.298;6.844;2023-03-24T09:34:18;6.97;;;1.52;;
35496;SDS011;21609;49.298;6.844;2023-03-24T09:36:45;2.65;;;1.58;;
35496;SDS011;21609;49.298;6.844;2023-03-24T09:39:10;3.38;;;1.52;;
35496;SDS011;21609;49.298;6.844;2023-03-24T09:41:36;2.10;;;1.45;;
35496;SDS011;21609;49.298;6.844;2023-03-24T09:44:03;3.40;;;1.23;;
35496;SDS011;21609;49.298;6.844;2023-03-24T09:47:38;2.80;;;1.70;;
35496;SDS011;21609;49.298;6.844;2023-03-24T09:49:43;1.70;;;1.42;;
35496;SDS011;21609;49.298;6.844;2023-03-24T09:52:11;1.98;;;1.33;;
35496;SDS011;21609;49.298;6.844;2023-03-24T09:54:43;3.28;;;1.60;;
35496;SDS011;21609;49.298;6.844;2023-03-24T09:57:38;2.58;;;1.88;;
35496;SDS011;21609;49.298;6.844;2023-03-24T10:02:49;2.42;;;1.17;;
35496;SDS011;21609;49.298;6.844;2023-03-24T10:05:39;1.27;;;1.17;;
35496;SDS011;21609;49.298;6.844;2023-03-24T10:08:14;1.27;;;1.00;;
35496;SDS011;21609;49.298;6.844;2023-03-24T10:11:03;1.52;;;1.08;;
35496;SDS011;21609;49.298;6.844;2023-03-24T10:16:29;1.20;;;1.10;;
35496;SDS011;21609;49.298;6.844;2023-03-24T10:29:43;1.75;;;1.27;;
35496;SDS011;21609;49.298;6.844;2023-03-24T10:32:14;3.83;;;1.02;;
35496;SDS011;21609;49.298;6.844;2023-03-24T10:34:47;1.30;;;1.10;;
35496;SDS011;21609;49.298;6.844;2023-03-24T10:37:16;8.15;;;1.48;;
35496;SDS011;21609;49.298;6.844;2023-03-24T10:39:42;1.33;;;1.23;;
35496;SDS011;21609;49.298;6.844;2023-03-24T10:42:11;1.27;;;1.08;;
35496;SDS011;21609;49.298;6.844;2023-03-24T10:44:40;8.35;;;1.17;;
35496;SDS011;21609;49.298;6.844;2023-03-24T10:47:08;6.15;;;1.48;;
35496;SDS011;21609;49.298;6.844;2023-03-24T10:49:38;1.75;;;1.02;;
35496;SDS011;21609;49.298;6.844;2023-03-24T10:52:20;4.68;;;1.48;;
35496;SDS011;21609;49.298;6.844;2023-03-24T10:54:55;1.83;;;1.27;;
35496;SDS011;21609;49.298;6.844;2023-03-24T10:57:28;2.50;;;0.90;;
35496;SDS011;21609;49.298;6.844;2023-03-24T10:59:59;1.55;;;0.95;;
35496;SDS011;21609;49.298;6.844;2023-03-24T11:02:33;2.13;;;1.50;;
35496;SDS011;21609;49.298;6.844;2023-03-24T11:05:12;1.08;;;1.00;;
35496;SDS011;21609;49.298;6.844;2023-03-24T11:07:38;1.27;;;1.00;;
35496;SDS011;21609;49.298;6.844;2023-03-24T11:12:38;3.08;;;0.93;;
35496;SDS011;21609;49.298;6.844;2023-03-24T11:15:16;1.45;;;1.17;;
35496;SDS011;21609;49.298;6.844;2023-03-24T11:17:44;0.93;;;0.90;;
35496;SDS011;21609;49.298;6.844;2023-03-24T11:20:15;1.13;;;0.90;;
35496;SDS011;21609;49.298;6.844;2023-03-24T11:22:57;2.95;;;1.40;;
35496;SDS011;21609;49.298;6.844;2023-03-24T11:25:29;1.27;;;1.17;;
35496;SDS011;21609;49.298;6.844;2023-03-24T11:27:58;1.23;;;1.13;;
35496;SDS011;21609;49.298;6.844;2023-03-24T11:30:31;1.00;;;0.90;;
35496;SDS011;21609;49.298;6.844;2023-03-24T11:32:58;1.08;;;0.90;;
35496;SDS011;21609;49.298;6.844;2023-03-24T11:35:25;1.00;;;0.90;;
35496;SDS011;21609;49.298;6.844;2023-03-24T11:37:52;4.03;;;1.15;;
35496;SDS011;21609;49.298;6.844;2023-03-24T11:40:19;1.25;;;1.10;;
35496;SDS011;21609;49.298;6.844;2023-03-24T11:42:56;0.77;;;0.77;;
35496;SDS011;21609;49.298;6.844;2023-03-24T11:45:33;2.08;;;1.25;;
35496;SDS011;21609;49.298;6.844;2023-03-24T11:50:57;1.10;;;0.90;;
35496;SDS011;21609;49.298;6.844;2023-03-24T11:53:26;2.95;;;1.00;;
35496;SDS011;21609;49.298;6.844;2023-03-24T11:56:01;1.02;;;0.70;;
35496;SDS011;21609;49.298;6.844;2023-03-24T11:59:06;1.77;;;1.23;;
35496;SDS011;21609;49.298;6.844;2023-03-24T12:01:59;1.88;;;1.05;;
35496;SDS011;21609;49.298;6.844;2023-03-24T12:04:40;1.30;;;0.85;;
35496;SDS011;21609;49.298;6.844;2023-03-24T12:15:30;2.42;;;0.93;;
35496;SDS011;21609;49.298;6.844;2023-03-24T12:20:58;1.77;;;0.52;;
35496;SDS011;21609;49.298;6.844;2023-03-24T12:26:28;0.70;;;0.70;;
35496;SDS011;21609;49.298;6.844;2023-03-24T12:32:02;1.35;;;1.02;;
35496;SDS011;21609;49.298;6.844;2023-03-24T12:37:04;1.13;;;0.95;;
35496;SDS011;21609;49.298;6.844;2023-03-24T12:39:47;1.08;;;0.90;;
35496;SDS011;21609;49.298;6.844;2023-03-24T12:42:19;1.92;;;1.20;;
35496;SDS011;21609;49.298;6.844;2023-03-24T12:45:00;1.00;;;0.80;;
35496;SDS011;21609;49.298;6.844;2023-03-24T12:47:43;2.05;;;1.23;;
35496;SDS011;21609;49.298;6.844;2023-03-24T12:53:51;2.20;;;0.90;;
35496;SDS011;21609;49.298;6.844;2023-03-24T12:59:12;0.90;;;0.80;;
35496;SDS011;21609;49.298;6.844;2023-03-24T13:01:42;2.25;;;0.95;;
35496;SDS011;21609;49.298;6.844;2023-03-24T13:07:01;2.50;;;1.05;;
35496;SDS011;21609;49.298;6.844;2023-03-24T13:09:41;5.25;;;1.20;;
35496;SDS011;21609;49.298;6.844;2023-03-24T13:12:16;5.85;;;1.75;;
35496;SDS011;21609;49.298;6.844;2023-03-24T13:15:06;4.57;;;2.90;;
35496;SDS011;21609;49.298;6.844;2023-03-24T13:17:40;5.00;;;4.20;;
35496;SDS011;21609;49.298;6.844;2023-03-24T13:20:13;8.10;;;7.15;;
35496;SDS011;21609;49.298;6.844;2023-03-24T13:22:51;9.45;;;8.65;;
35496;SDS011;21609;49.298;6.844;2023-03-24T13:25:24;9.90;;;8.90;;
35496;SDS011;21609;49.298;6.844;2023-03-24T13:28:03;17.17;;;10.35;;
35496;SDS011;21609;49.298;6.844;2023-03-24T13:30:38;13.90;;;12.85;;
35496;SDS011;21609;49.298;6.844;2023-03-24T13:33:10;21.88;;;20.30;;
35496;SDS011;21609;49.298;6.844;2023-03-24T13:35:49;24.95;;;23.20;;
35496;SDS011;21609;49.298;6.844;2023-03-24T13:38:37;23.05;;;21.70;;
35496;SDS011;21609;49.298;6.844;2023-03-24T13:41:04;24.77;;;23.13;;
35496;SDS011;21609;49.298;6.844;2023-03-24T13:43:34;21.02;;;19.42;;
35496;SDS011;21609;49.298;6.844;2023-03-24T13:46:04;20.05;;;18.67;;
35496;SDS011;21609;49.298;6.844;2023-03-24T13:48:36;20.33;;;18.73;;
35496;SDS011;21609;49.298;6.844;2023-03-24T13:51:14;17.75;;;16.65;;
35496;SDS011;21609;49.298;6.844;2023-03-24T13:53:49;17.55;;;16.38;;
35496;SDS011;21609;49.298;6.844;2023-03-24T13:56:30;17.52;;;16.20;;
35496;SDS011;21609;49.298;6.844;2023-03-24T14:09:19;14.55;;;13.45;;
35496;SDS011;21609;49.298;6.844;2023-03-24T14:14:28;13.13;;;12.15;;
35496;SDS011;21609;49.298;6.844;2023-03-24T14:19:36;11.80;;;11.00;;
35496;SDS011;21609;49.298;6.844;2023-03-24T14:22:21;11.98;;;11.07;;
35496;SDS011;21609;49.298;6.844;2023-03-24T14:24:58;12.10;;;11.30;;
35496;SDS011;21609;49.298;6.844;2023-03-24T14:32:53;11.63;;;10.82;;
35496;SDS011;21609;49.298;6.844;2023-03-24T14:35:35;11.25;;;10.55;;
35496;SDS011;21609;49.298;6.844;2023-03-24T14:40:39;10.40;;;9.70;;
35496;SDS011;21609;49.298;6.844;2023-03-24T14:45:50;9.77;;;9.13;;
35496;SDS011;21609;49.298;6.844;2023-03-24T14:48:36;10.38;;;9.57;;
35496;SDS011;21609;49.298;6.844;2023-03-24T14:54:15;8.80;;;8.07;;
35496;SDS011;21609;49.298;6.844;2023-03-24T14:56:46;9.85;;;9.15;;
35496;SDS011;21609;49.298;6.844;2023-03-24T14:59:20;9.40;;;8.70;;
35496;SDS011;21609;49.298;6.844;2023-03-24T15:01:55;8.98;;;8.38;;
35496;SDS011;21609;49.298;6.844;2023-03-24T15:04:27;8.63;;;8.13;;
35496;SDS011;21609;49.298;6.844;2023-03-24T15:06:53;9.10;;;8.40;;
35496;SDS011;21609;49.298;6.844;2023-03-24T15:09:18;8.13;;;7.63;;
35496;SDS011;21609;49.298;6.844;2023-03-24T15:11:45;8.65;;;8.15;;
35496;SDS011;21609;49.298;6.844;2023-03-24T15:14:14;9.23;;;8.60;;
35496;SDS011;21609;49.298;6.844;2023-03-24T15:16:50;8.95;;;8.35;;
35496;SDS011;21609;49.298;6.844;2023-03-24T15:19:21;8.02;;;7.53;;
35496;SDS011;21609;49.298;6.844;2023-03-24T15:21:56;7.80;;;7.00;;
35496;SDS011;21609;49.298;6.844;2023-03-24T15:24:45;6.53;;;6.03;;
35496;SDS011;21609;49.298;6.844;2023-03-24T15:27:13;8.50;;;7.65;;
35496;SDS011;21609;49.298;6.844;2023-03-24T15:29:44;7.15;;;6.70;;
35496;SDS011;21609;49.298;6.844;2023-03-24T15:32:17;8.07;;;7.57;;
35496;SDS011;21609;49.298;6.844;2023-03-24T15:34:52;7.85;;;7.35;;
35496;SDS011;21609;49.298;6.844;2023-03-24T15:37:23;6.95;;;6.45;;
35496;SDS011;21609;49.298;6.844;2023-03-24T15:39:58;6.97;;;6.50;;
35496;SDS011;21609;49.298;6.844;2023-03-24T15:42:24;7.47;;;6.95;;
35496;SDS011;21609;49.298;6.844;2023-03-24T15:44:50;6.72;;;6.25;;
35496;SDS011;21609;49.298;6.844;2023-03-24T15:47:21;7.22;;;6.60;;
35496;SDS011;21609;49.298;6.844;2023-03-24T15:49:56;6.75;;;6.25;;
35496;SDS011;21609;49.298;6.844;2023-03-24T15:54:49;7.15;;;6.68;;
35496;SDS011;21609;49.298;6.844;2023-03-24T15:59:44;7.22;;;6.55;;
35496;SDS011;21609;49.298;6.844;2023-03-24T16:02:29;6.38;;;5.80;;
35496;SDS011;21609;49.298;6.844;2023-03-24T16:07:35;6.25;;;5.85;;
35496;SDS011;21609;49.298;6.844;2023-03-24T16:10:03;5.90;;;5.60;;
35496;SDS011;21609;49.298;6.844;2023-03-24T16:12:34;5.85;;;5.40;;
35496;SDS011;21609;49.298;6.844;2023-03-24T16:15:00;6.63;;;6.13;;
35496;SDS011;21609;49.298;6.844;2023-03-24T16:17:29;5.75;;;5.30;;
35496;SDS011;21609;49.298;6.844;2023-03-24T16:19:55;6.15;;;5.75;;
35496;SDS011;21609;49.298;6.844;2023-03-24T16:22:20;5.60;;;5.20;;
35496;SDS011;21609;49.298;6.844;2023-03-24T16:24:46;5.63;;;5.13;;
35496;SDS011;21609;49.298;6.844;2023-03-24T16:27:13;5.90;;;5.40;;
35496;SDS011;21609;49.298;6.844;2023-03-24T16:29:39;5.80;;;5.50;;
35496;SDS011;21609;49.298;6.844;2023-03-24T16:32:04;5.43;;;5.13;;
35496;SDS011;21609;49.298;6.844;2023-03-24T16:34:30;5.35;;;5.05;;
35496;SDS011;21609;49.298;6.844;2023-03-24T16:36:56;5.85;;;5.35;;
35496;SDS011;21609;49.298;6.844;2023-03-24T16:39:23;5.28;;;4.97;;
35496;SDS011;21609;49.298;6.844;2023-03-24T16:41:50;5.72;;;5.35;;
35496;SDS011;21609;49.298;6.844;2023-03-24T16:44:16;5.65;;;5.25;;
35496;SDS011;21609;49.298;6.844;2023-03-24T16:46:41;5.68;;;5.28;;
35496;SDS011;21609;49.298;6.844;2023-03-24T16:49:10;5.75;;;5.38;;
35496;SDS011;21609;49.298;6.844;2023-03-24T16:51:38;5.00;;;4.70;;
35496;SDS011;21609;49.298;6.844;2023-03-24T16:54:05;4.85;;;4.55;;
35496;SDS011;21609;49.298;6.844;2023-03-24T16:56:33;5.20;;;4.80;;
35496;SDS011;21609;49.298;6.844;2023-03-24T16:59:00;5.63;;;5.10;;
35496;SDS011;21609;49.298;6.844;2023-03-24T17:04:05;4.93;;;4.63;;
35496;SDS011;21609;49.298;6.844;2023-03-24T17:06:43;5.13;;;4.83;;
35496;SDS011;21609;49.298;6.844;2023-03-24T17:09:12;5.03;;;4.53;;
35496;SDS011;21609;49.298;6.844;2023-03-24T17:11:39;5.03;;;4.72;;
35496;SDS011;21609;49.298;6.844;2023-03-24T17:14:08;4.00;;;3.80;;
35496;SDS011;21609;49.298;6.844;2023-03-24T17:16:37;4.70;;;4.40;;
35496;SDS011;21609;49.298;6.844;2023-03-24T17:19:10;4.85;;;4.45;;
35496;SDS011;21609;49.298;6.844;2023-03-24T17:21:40;4.65;;;4.35;;
35496;SDS011;21609;49.298;6.844;2023-03-24T17:24:12;5.55;;;5.13;;